Time;durP1;ratioP1;P1;durP2;ratioP2;P2;SDS_P1;SDS_P2;PMS_P1;PMS_P2;Temp;Humidity;BMP_temperature;BMP_pressure;BME280_temperature;BME280_humidity;BME280_pressure;Samples;Min_cycle;Max_cycle;Signal;HPM_P1;HPM_P2
2021/05/18 00:00:22;;;;;;;5.90;4.40;;;14.00;99.90;;;;;;5102392;28;20197;-74
2021/05/18 00:02:49;;;;;;;6.10;4.60;;;14.00;99.90;;;;;;5094829;28;20205;-75
2021/05/18 00:05:19;;;;;;;5.13;4.63;;;13.90;99.90;;;;;;5093463;28;20231;-75
2021/05/18 00:07:53;;;;;;;5.93;4.97;;;14.00;99.90;;;;;;5094449;28;20213;-73
2021/05/18 00:13:05;;;;;;;5.40;4.90;;;13.90;99.90;;;;;;5102833;28;20221;-74
2021/05/18 00:15:31;;;;;;;5.03;4.60;;;13.90;99.90;;;;;;5091363;28;20247;-73
2021/05/18 00:17:58;;;;;;;7.60;5.50;;;13.90;99.90;;;;;;5089654;28;20295;-74
2021/05/18 00:20:25;;;;;;;8.63;5.40;;;13.80;99.90;;;;;;5092000;28;20209;-73
2021/05/18 00:22:52;;;;;;;7.33;5.20;;;13.80;99.90;;;;;;5103307;28;20204;-74
2021/05/18 00:25:18;;;;;;;6.90;6.00;;;13.90;99.90;;;;;;5094080;28;20226;-75
2021/05/18 00:27:45;;;;;;;8.20;5.77;;;13.80;99.90;;;;;;5103250;28;20566;-74
2021/05/18 00:30:14;;;;;;;6.57;5.80;;;13.80;99.90;;;;;;5095721;28;20289;-74
2021/05/18 00:32:41;;;;;;;6.20;5.60;;;13.80;99.90;;;;;;5108480;28;20243;-73
2021/05/18 00:35:09;;;;;;;6.43;5.83;;;13.80;99.90;;;;;;5094829;28;20284;-73
2021/05/18 00:37:37;;;;;;;8.47;5.13;;;13.80;99.90;;;;;;5100218;28;20698;-74
2021/05/18 00:40:06;;;;;;;7.90;6.17;;;13.80;99.90;;;;;;5098251;28;20243;-74
2021/05/18 00:42:32;;;;;;;7.43;5.77;;;13.80;99.90;;;;;;5106510;28;20247;-74
2021/05/18 00:44:59;;;;;;;7.27;6.30;;;13.90;99.90;;;;;;5092993;28;20703;-73
2021/05/18 00:47:25;;;;;;;6.27;5.60;;;13.90;99.90;;;;;;5095185;28;20646;-74
2021/05/18 00:49:51;;;;;;;7.17;5.93;;;13.80;99.90;;;;;;5091338;28;20319;-73
2021/05/18 00:52:18;;;;;;;7.67;5.73;;;13.80;99.90;;;;;;5098363;28;20291;-73
2021/05/18 00:54:53;;;;;;;7.87;6.03;;;13.80;99.90;;;;;;5107217;28;20204;-73
2021/05/18 01:00:05;;;;;;;10.10;5.80;;;13.70;99.90;;;;;;5096977;28;20610;-73
2021/05/18 01:02:32;;;;;;;6.77;5.77;;;13.60;99.90;;;;;;5098256;28;20227;-73
2021/05/18 01:05:07;;;;;;;6.80;6.03;;;13.60;99.90;;;;;;5097621;28;20255;-74
2021/05/18 01:07:34;;;;;;;5.37;4.83;;;13.60;99.90;;;;;;5091749;28;20205;-72
2021/05/18 01:10:01;;;;;;;7.43;5.73;;;13.60;99.90;;;;;;5091938;28;20204;-73
2021/05/18 01:12:28;;;;;;;6.80;5.90;;;13.60;99.90;;;;;;5102959;28;20205;-73
2021/05/18 01:14:54;;;;;;;5.67;5.17;;;13.70;99.90;;;;;;5090244;28;20229;-72
2021/05/18 01:17:21;;;;;;;8.70;5.63;;;13.70;99.90;;;;;;5109420;28;20212;-73
2021/05/18 01:19:47;;;;;;;7.07;5.67;;;13.70;99.90;;;;;;5096562;27;20299;-73
2021/05/18 01:22:14;;;;;;;7.27;5.87;;;13.70;99.90;;;;;;5092226;28;20268;-73
2021/05/18 01:24:41;;;;;;;9.00;5.53;;;13.70;99.90;;;;;;5092484;28;20251;-73
2021/05/18 01:27:08;;;;;;;7.03;5.50;;;13.70;99.90;;;;;;5104990;28;20223;-73
2021/05/18 01:29:35;;;;;;;6.23;5.33;;;13.70;99.90;;;;;;5090339;28;20616;-74
2021/05/18 01:32:03;;;;;;;6.33;5.73;;;13.80;99.90;;;;;;5099687;28;20197;-73
2021/05/18 01:34:29;;;;;;;7.43;6.10;;;13.70;99.90;;;;;;5095256;28;20216;-75
2021/05/18 01:36:56;;;;;;;5.73;5.17;;;13.70;99.90;;;;;;5102508;28;20236;-74
2021/05/18 01:39:45;;;;;;;8.17;5.50;;;13.70;99.90;;;;;;5101477;28;20341;-74
2021/05/18 01:44:55;;;;;;;6.77;5.63;;;13.80;99.90;;;;;;5098764;28;20812;-74
2021/05/18 01:47:22;;;;;;;6.00;5.40;;;13.90;99.90;;;;;;5109455;28;20732;-75
2021/05/18 01:49:48;;;;;;;6.13;5.40;;;13.80;99.90;;;;;;5097079;28;21463;-73
2021/05/18 01:52:15;;;;;;;7.03;5.40;;;13.90;99.90;;;;;;5094852;28;20661;-73
2021/05/18 01:54:42;;;;;;;6.43;5.80;;;13.90;99.90;;;;;;5106857;28;20288;-73
2021/05/18 01:57:19;;;;;;;7.13;6.23;;;14.00;99.90;;;;;;5100785;28;20259;-73
2021/05/18 01:59:47;;;;;;;7.40;6.53;;;14.00;99.90;;;;;;5096817;28;20199;-73
2021/05/18 02:02:14;;;;;;;7.37;6.13;;;13.90;99.90;;;;;;5101919;28;20205;-73
2021/05/18 02:04:43;;;;;;;6.67;6.00;;;13.90;99.90;;;;;;5097330;28;20265;-73
2021/05/18 02:07:12;;;;;;;6.73;6.03;;;13.80;99.90;;;;;;5095614;28;20215;-74
2021/05/18 02:09:39;;;;;;;6.83;6.23;;;13.70;99.90;;;;;;5095439;28;20216;-73
2021/05/18 02:12:07;;;;;;;7.37;6.60;;;13.70;99.90;;;;;;5090365;28;20751;-73
2021/05/18 02:14:38;;;;;;;8.53;6.67;;;13.70;99.90;;;;;;5108015;28;20655;-73
2021/05/18 02:17:14;;;;;;;8.07;7.37;;;13.70;99.90;;;;;;5093204;28;20201;-73
2021/05/18 02:19:58;;;;;;;7.93;7.20;;;13.70;99.90;;;;;;5091268;28;20211;-73
2021/05/18 02:25:08;;;;;;;10.10;8.17;;;13.60;99.90;;;;;;5054445;28;20240;-72
2021/05/18 02:27:35;;;;;;;9.87;8.87;;;13.60;99.90;;;;;;5100190;28;20287;-73
2021/05/18 02:30:01;;;;;;;10.67;8.93;;;13.50;99.90;;;;;;5097096;28;20291;-74
2021/05/18 02:32:29;;;;;;;10.20;9.20;;;13.50;99.90;;;;;;5104984;28;20204;-73
2021/05/18 02:34:56;;;;;;;11.97;9.60;;;13.50;99.90;;;;;;5090936;28;20315;-73
2021/05/18 02:37:23;;;;;;;11.93;9.27;;;13.50;99.90;;;;;;5104654;28;20316;-74
2021/05/18 02:39:49;;;;;;;13.03;10.63;;;13.40;99.90;;;;;;5104779;28;20648;-73
2021/05/18 02:42:16;;;;;;;12.60;10.47;;;13.40;99.90;;;;;;5100767;28;20326;-73
2021/05/18 02:44:46;;;;;;;11.13;9.93;;;13.40;99.90;;;;;;5098622;28;20225;-73
2021/05/18 02:49:57;;;;;;;11.63;10.43;;;13.40;99.90;;;;;;5092920;28;20300;-73
2021/05/18 02:52:24;;;;;;;11.40;9.40;;;13.40;99.90;;;;;;5100106;28;20216;-73
2021/05/18 02:54:52;;;;;;;13.93;10.33;;;13.40;99.90;;;;;;5103289;28;20239;-74
2021/05/18 02:57:30;;;;;;;11.43;10.00;;;13.50;99.90;;;;;;5108138;28;20563;-74
2021/05/18 02:59:58;;;;;;;10.83;9.73;;;13.40;99.90;;;;;;5096871;28;20216;-72
2021/05/18 03:02:25;;;;;;;11.33;9.90;;;13.40;99.90;;;;;;5100678;28;20224;-74
2021/05/18 03:04:52;;;;;;;11.43;9.37;;;13.50;99.90;;;;;;5100262;28;20231;-74
2021/05/18 03:07:19;;;;;;;10.70;9.60;;;13.50;99.90;;;;;;5093208;28;20732;-74
2021/05/18 03:09:45;;;;;;;11.13;9.80;;;13.50;99.90;;;;;;5090911;28;20204;-74
2021/05/18 03:12:12;;;;;;;11.60;10.33;;;13.50;99.90;;;;;;5096266;28;20209;-73
2021/05/18 03:14:38;;;;;;;11.47;10.27;;;13.60;99.90;;;;;;5097213;28;20743;-72
2021/05/18 03:17:06;;;;;;;11.70;10.17;;;13.60;99.90;;;;;;5098051;28;20234;-73
2021/05/18 03:19:33;;;;;;;10.67;9.57;;;13.60;99.90;;;;;;5099059;28;20291;-73
2021/05/18 03:21:59;;;;;;;11.10;10.00;;;13.60;99.90;;;;;;5093919;28;20254;-73
2021/05/18 03:24:26;;;;;;;11.10;10.00;;;13.70;99.90;;;;;;5104778;28;20306;-74
2021/05/18 03:26:52;;;;;;;12.97;11.50;;;13.70;99.90;;;;;;5108187;28;20737;-73
2021/05/18 03:29:23;;;;;;;11.63;10.43;;;13.70;99.90;;;;;;5103457;28;20636;-73
2021/05/18 03:34:35;;;;;;;11.03;9.93;;;13.70;99.90;;;;;;5104522;28;20195;-73
2021/05/18 03:37:06;;;;;;;10.90;9.90;;;13.70;99.90;;;;;;5103583;28;20287;-73
2021/05/18 03:39:34;;;;;;;10.73;9.73;;;13.70;99.90;;;;;;5111288;28;20196;-73
2021/05/18 03:42:04;;;;;;;10.60;9.53;;;13.70;99.90;;;;;;5100564;27;20208;-74
2021/05/18 03:44:53;;;;;;;10.53;9.53;;;13.70;99.90;;;;;;5114899;28;20607;-73
2021/05/18 03:52:59;;;;;;;12.60;9.93;;;13.80;99.90;;;;;;5096191;28;20208;-73
2021/05/18 04:03:49;;;;;;;11.00;9.60;;;13.90;99.90;;;;;;5112327;28;20230;-73
2021/05/18 04:17:21;;;;;;;10.03;9.00;;;13.90;99.90;;;;;;5099622;28;20192;-73
2021/05/18 04:19:53;;;;;;;9.83;8.83;;;14.00;99.90;;;;;;5096469;28;20572;-73
2021/05/18 04:22:45;;;;;;;9.10;8.13;;;14.00;99.90;;;;;;5101038;28;20550;-73
2021/05/18 04:25:43;;;;;;;10.50;9.03;;;14.10;99.90;;;;;;5100956;28;20220;-73
2021/05/18 04:39:17;;;;;;;10.33;9.17;;;14.40;99.90;;;;;;5099471;28;20229;-74
2021/05/18 04:53:04;;;;;;;10.03;9.10;;;14.80;99.90;;;;;;5084114;28;20628;-74
2021/05/18 05:01:00;;;;;;;8.07;7.37;;;15.30;99.90;;;;;;5097722;28;20768;-74
2021/05/18 05:06:20;;;;;;;8.80;7.90;;;15.60;99.90;;;;;;5103866;28;20278;-74
2021/05/18 05:08:51;;;;;;;8.17;7.37;;;15.80;99.90;;;;;;5098594;28;20209;-75
2021/05/18 05:14:18;;;;;;;7.73;6.93;;;16.20;99.90;;;;;;5105327;28;20228;-74
2021/05/18 05:16:45;;;;;;;8.10;6.90;;;16.30;99.90;;;;;;5098109;28;20212;-75
2021/05/18 05:19:12;;;;;;;8.23;7.23;;;16.40;99.90;;;;;;5099322;28;20204;-74
2021/05/18 05:21:39;;;;;;;8.13;6.53;;;16.40;99.90;;;;;;5099776;28;20207;-73
2021/05/18 05:24:07;;;;;;;8.07;6.67;;;16.50;99.90;;;;;;5102292;28;20261;-73
2021/05/18 05:26:35;;;;;;;8.03;6.27;;;16.60;99.90;;;;;;5112315;28;20270;-73
2021/05/18 05:29:02;;;;;;;7.67;6.80;;;16.60;99.90;;;;;;5091002;28;20201;-74
2021/05/18 05:31:29;;;;;;;7.10;6.40;;;16.70;99.90;;;;;;5100551;28;20207;-74
2021/05/18 05:33:55;;;;;;;8.37;6.57;;;16.70;99.90;;;;;;5090489;28;20254;-72
2021/05/18 05:36:22;;;;;;;8.47;5.60;;;16.80;99.90;;;;;;5096587;28;20232;-73
2021/05/18 05:38:49;;;;;;;8.37;6.43;;;16.70;99.90;;;;;;5096461;28;20276;-74
2021/05/18 05:41:15;;;;;;;6.30;5.67;;;16.70;99.90;;;;;;5107851;28;20270;-74
2021/05/18 05:43:43;;;;;;;7.07;6.00;;;16.70;99.90;;;;;;5104450;28;20228;-73
2021/05/18 05:46:09;;;;;;;8.23;6.07;;;16.70;99.90;;;;;;5110041;28;20226;-73
2021/05/18 05:48:36;;;;;;;6.03;5.47;;;16.80;99.90;;;;;;5098438;28;20204;-73
2021/05/18 05:51:03;;;;;;;6.20;5.60;;;16.80;99.90;;;;;;5095498;28;20232;-75
2021/05/18 05:53:30;;;;;;;6.67;5.87;;;16.80;99.90;;;;;;5105356;28;20310;-73
2021/05/18 05:55:57;;;;;;;5.90;5.30;;;16.80;99.90;;;;;;5104721;28;20240;-73
2021/05/18 05:58:24;;;;;;;7.30;6.43;;;16.80;99.90;;;;;;5097317;28;20338;-71
2021/05/18 06:00:51;;;;;;;9.20;6.73;;;16.80;99.90;;;;;;5095828;28;20684;-70
2021/05/18 06:03:17;;;;;;;7.80;6.57;;;16.80;99.90;;;;;;5099785;28;20204;-72
2021/05/18 06:05:43;;;;;;;7.30;6.60;;;16.80;99.90;;;;;;5102532;28;20236;-72
2021/05/18 06:08:10;;;;;;;6.90;6.00;;;16.80;99.90;;;;;;5092033;28;20235;-70
2021/05/18 06:10:39;;;;;;;6.73;6.10;;;16.70;99.90;;;;;;5090533;28;20684;-70
2021/05/18 06:43:37;;;;;;;5.70;5.13;;;17.20;99.90;;;;;;5101988;28;20201;-70
2021/05/18 06:48:40;;;;;;;7.17;5.90;;;17.10;99.90;;;;;;5093077;28;20293;-71
2021/05/18 06:51:06;;;;;;;7.57;6.87;;;17.10;99.90;;;;;;5096342;28;20259;-70
2021/05/18 06:53:33;;;;;;;7.00;6.37;;;17.10;99.90;;;;;;5092060;28;20231;-69
2021/05/18 06:56:00;;;;;;;7.27;6.57;;;17.10;99.90;;;;;;5105004;28;20200;-70
2021/05/18 06:58:45;;;;;;;9.40;7.97;;;17.10;99.90;;;;;;5086579;28;20296;-67
2021/05/18 07:01:11;;;;;;;7.50;6.80;;;17.10;99.90;;;;;;5086927;28;20677;-70
2021/05/18 07:03:43;;;;;;;8.50;7.30;;;17.20;99.90;;;;;;5100071;28;20208;-70
2021/05/18 07:06:22;;;;;;;7.23;6.50;;;17.20;99.90;;;;;;5103276;28;20220;-69
2021/05/18 07:08:56;;;;;;;7.80;7.07;;;17.30;99.90;;;;;;5087883;28;20220;-70
2021/05/18 07:11:23;;;;;;;8.30;7.50;;;17.30;99.90;;;;;;5091724;28;20234;-70
2021/05/18 07:13:49;;;;;;;7.60;6.80;;;17.30;99.90;;;;;;5090268;28;20671;-73
2021/05/18 07:16:15;;;;;;;9.50;8.17;;;17.30;99.90;;;;;;5095388;28;20713;-68
2021/05/18 07:18:43;;;;;;;8.20;7.40;;;17.40;99.90;;;;;;5088926;28;20365;-71
2021/05/18 07:21:09;;;;;;;8.33;7.53;;;17.40;99.90;;;;;;5097968;28;20199;-69
2021/05/18 07:23:36;;;;;;;8.67;7.50;;;17.40;99.90;;;;;;5103611;28;20208;-68
2021/05/18 07:26:03;;;;;;;9.23;7.37;;;17.40;99.90;;;;;;5089544;28;20290;-69
2021/05/18 07:28:31;;;;;;;9.37;6.93;;;17.40;99.90;;;;;;5094004;28;20696;-69
2021/05/18 07:31:00;;;;;;;8.27;7.37;;;17.30;99.90;;;;;;5102606;28;20243;-71
2021/05/18 07:33:26;;;;;;;10.27;7.87;;;17.20;99.90;;;;;;5098541;28;20839;-69
2021/05/18 07:35:57;;;;;;;9.63;7.87;;;17.10;99.90;;;;;;5097162;28;20312;-69
2021/05/18 07:38:23;;;;;;;6.90;6.20;;;17.00;99.90;;;;;;5090563;28;20226;-72
2021/05/18 07:40:50;;;;;;;8.70;7.90;;;16.90;99.90;;;;;;5095491;28;20208;-67
2021/05/18 07:43:18;;;;;;;8.33;7.07;;;16.80;99.90;;;;;;5089789;28;20209;-72
2021/05/18 07:45:50;;;;;;;8.00;7.20;;;16.80;99.90;;;;;;5095481;28;20224;-70
2021/05/18 07:48:21;;;;;;;8.67;7.77;;;16.70;99.90;;;;;;5088265;28;20212;-69
2021/05/18 07:50:55;;;;;;;7.93;7.27;;;16.70;99.90;;;;;;5096848;28;20688;-68
2021/05/18 08:07:03;;;;;;;9.27;6.90;;;16.60;99.90;;;;;;5095798;28;20224;-70
2021/05/18 08:09:34;;;;;;;10.17;7.17;;;16.70;99.90;;;;;;5088671;28;20213;-69
2021/05/18 08:12:00;;;;;;;7.83;7.03;;;16.70;99.90;;;;;;5092072;28;20203;-69
2021/05/18 08:14:27;;;;;;;8.10;6.67;;;16.80;99.90;;;;;;5090674;28;20232;-69
2021/05/18 08:20:03;;;;;;;10.17;7.07;;;16.90;99.90;;;;;;5072344;28;20208;-70
2021/05/18 10:27:49;;;;;;;7.80;5.00;;;18.00;99.90;;;;;;5087964;28;20207;-72
2021/05/18 10:35:43;;;;;;;6.07;5.33;;;17.70;99.90;;;;;;5095345;28;20220;-71
2021/05/18 10:38:12;;;;;;;6.33;5.33;;;17.70;99.90;;;;;;5092870;28;20197;-71
2021/05/18 10:40:40;;;;;;;5.93;5.30;;;17.70;99.90;;;;;;5093048;28;20228;-71
2021/05/18 10:43:16;;;;;;;7.07;4.80;;;17.70;99.90;;;;;;5099727;28;20247;-70
2021/05/18 10:46:12;;;;;;;5.80;5.20;;;17.70;99.90;;;;;;5108493;28;20251;-69
2021/05/18 10:49:05;;;;;;;6.97;5.43;;;17.70;99.90;;;;;;5095941;28;20292;-70
2021/05/18 10:51:42;;;;;;;6.23;5.60;;;17.70;99.90;;;;;;5089239;28;20710;-71
2021/05/18 10:54:21;;;;;;;7.23;6.57;;;17.70;99.90;;;;;;5095297;28;20291;-68
2021/05/18 10:57:19;;;;;;;9.67;5.83;;;17.50;99.90;;;;;;5087229;28;20207;-70
2021/05/18 10:59:55;;;;;;;7.50;5.53;;;17.40;99.90;;;;;;5093022;28;20205;-71
2021/05/18 11:02:25;;;;;;;6.13;5.63;;;17.30;99.90;;;;;;5099125;28;20212;-70
2021/05/18 11:04:53;;;;;;;7.00;6.23;;;17.30;99.90;;;;;;5096059;28;20290;-71
2021/05/18 11:07:22;;;;;;;6.20;5.63;;;17.20;99.90;;;;;;5085356;28;20197;-72
2021/05/18 11:09:49;;;;;;;6.73;6.00;;;17.20;99.90;;;;;;5101768;28;20297;-69
2021/05/18 11:12:17;;;;;;;5.83;5.33;;;17.20;99.90;;;;;;5101541;28;20209;-76
2021/05/18 11:14:50;;;;;;;8.13;6.37;;;17.30;99.90;;;;;;5093372;28;20229;-76
2021/05/18 11:17:20;;;;;;;6.30;5.60;;;17.40;99.90;;;;;;5085597;28;20193;-70
2021/05/18 11:20:11;;;;;;;8.00;5.67;;;17.50;99.90;;;;;;5089374;28;20234;-73
2021/05/18 11:25:47;;;;;;;8.30;5.70;;;17.80;99.90;;;;;;5101310;28;20645;-71
2021/05/18 11:28:19;;;;;;;7.13;6.43;;;18.00;99.90;;;;;;5089298;28;20212;-71
2021/05/18 11:30:48;;;;;;;6.40;5.80;;;18.50;99.90;;;;;;5084686;28;20284;-74
2021/05/18 11:33:15;;;;;;;6.93;6.00;;;18.80;99.90;;;;;;5094439;28;20617;-73
2021/05/18 11:35:42;;;;;;;7.43;6.33;;;19.20;99.90;;;;;;5098427;28;20749;-72
2021/05/18 11:38:13;;;;;;;6.10;5.60;;;19.60;99.90;;;;;;5093870;28;20236;-71
2021/05/18 11:40:42;;;;;;;6.43;5.57;;;19.90;99.90;;;;;;5097411;28;20204;-71
2021/05/18 11:43:21;;;;;;;6.23;5.63;;;20.10;99.90;;;;;;5091944;28;20204;-71
2021/05/18 11:45:50;;;;;;;10.70;5.93;;;20.10;99.90;;;;;;5090966;28;20714;-71
2021/05/18 11:48:18;;;;;;;6.07;5.55;;;20.10;99.90;;;;;;5102761;28;20286;-72
2021/05/18 11:50:45;;;;;;;6.60;5.97;;;20.00;99.90;;;;;;5100359;28;20232;-71
2021/05/18 11:53:36;;;;;;;6.18;5.57;;;19.90;99.90;;;;;;5103300;28;20286;-72
2021/05/18 11:56:16;;;;;;;5.68;5.18;;;20.00;99.90;;;;;;5088164;28;20204;-71
2021/05/18 11:58:43;;;;;;;7.20;6.50;;;20.20;99.90;;;;;;5098099;28;20231;-74
2021/05/18 12:01:10;;;;;;;6.45;5.78;;;20.40;99.90;;;;;;5093748;28;20223;-72
2021/05/18 12:03:37;;;;;;;6.43;5.82;;;20.60;99.90;;;;;;5088100;28;20215;-73
2021/05/18 12:06:05;;;;;;;7.20;6.50;;;20.80;99.90;;;;;;5096655;28;20314;-71
2021/05/18 12:08:33;;;;;;;6.97;6.30;;;20.90;99.90;;;;;;5090116;28;20215;-72
2021/05/18 12:11:16;;;;;;;7.70;6.45;;;20.80;99.90;;;;;;5097265;28;20211;-73
2021/05/18 12:13:44;;;;;;;6.90;6.30;;;20.80;99.90;;;;;;5088522;28;20316;-72
2021/05/18 12:16:12;;;;;;;6.88;6.18;;;20.70;99.90;;;;;;5100587;28;20571;-73
2021/05/18 12:18:40;;;;;;;7.10;6.40;;;20.70;99.90;;;;;;5079004;28;20208;-73
2021/05/18 12:21:11;;;;;;;7.40;5.73;;;20.70;99.90;;;;;;5093656;28;20673;-74
2021/05/18 12:23:38;;;;;;;6.57;5.97;;;20.70;99.90;;;;;;5091304;28;20212;-72
2021/05/18 12:26:20;;;;;;;6.40;5.82;;;20.60;99.90;;;;;;5092322;28;20635;-74
2021/05/18 12:28:57;;;;;;;6.15;5.65;;;20.60;99.90;;;;;;5092450;28;20647;-73
2021/05/18 12:31:29;;;;;;;8.35;6.60;;;20.50;99.90;;;;;;5096888;28;20193;-75
2021/05/18 12:33:58;;;;;;;7.18;6.35;;;20.40;99.90;;;;;;5082748;28;20559;-73
2021/05/18 12:36:25;;;;;;;6.63;5.75;;;20.40;99.90;;;;;;5096977;28;20235;-72
2021/05/18 12:39:11;;;;;;;8.25;6.45;;;20.30;99.90;;;;;;5094159;28;20342;-74
2021/05/18 12:41:56;;;;;;;7.07;6.40;;;20.30;99.90;;;;;;5097338;28;20208;-72
2021/05/18 12:44:24;;;;;;;7.50;6.53;;;20.10;99.90;;;;;;5088650;28;20201;-73
2021/05/18 12:47:04;;;;;;;10.15;5.97;;;19.90;99.90;;;;;;5090465;28;20308;-71
2021/05/18 12:49:34;;;;;;;7.18;6.50;;;19.70;99.90;;;;;;5077525;28;20264;-71
2021/05/18 12:52:06;;;;;;;6.47;5.90;;;19.50;99.90;;;;;;5094399;28;20239;-74
2021/05/18 12:54:49;;;;;;;7.53;6.15;;;19.40;99.90;;;;;;5092475;28;20200;-73
2021/05/18 12:57:18;;;;;;;7.00;5.47;;;19.20;99.90;;;;;;5097227;28;20207;-72
2021/05/18 13:00:04;;;;;;;6.13;5.53;;;19.00;99.90;;;;;;5098297;28;21661;-70
2021/05/18 13:02:34;;;;;;;6.35;5.30;;;18.80;99.90;;;;;;5091825;28;20236;-71
2021/05/18 13:05:13;;;;;;;12.38;5.30;;;18.70;99.90;;;;;;5092891;28;20261;-72
2021/05/18 13:07:41;;;;;;;6.90;5.23;;;18.50;99.90;;;;;;5086539;28;20208;-71
2021/05/18 13:10:11;;;;;;;9.97;4.90;;;18.40;99.90;;;;;;5096554;28;20217;-71
2021/05/18 13:12:38;;;;;;;7.20;5.57;;;18.30;99.90;;;;;;5097071;28;20207;-71
2021/05/18 13:15:07;;;;;;;5.63;5.00;;;18.30;99.90;;;;;;5094309;28;20224;-72
2021/05/18 13:17:35;;;;;;;5.80;5.30;;;18.40;99.90;;;;;;5095362;28;20646;-72
2021/05/18 13:20:06;;;;;;;5.87;5.07;;;18.40;99.90;;;;;;5094717;28;20291;-71
2021/05/18 13:22:34;;;;;;;5.63;4.37;;;18.50;99.90;;;;;;5105674;28;20260;-72
2021/05/18 13:27:55;;;;;;;5.57;4.80;;;18.50;99.90;;;;;;5104198;28;20195;-69
2021/05/18 13:30:23;;;;;;;5.10;4.60;;;18.50;99.90;;;;;;5100062;28;20282;-75
2021/05/18 13:32:51;;;;;;;5.17;4.67;;;18.50;99.90;;;;;;5104870;27;20210;-74
2021/05/18 13:35:19;;;;;;;7.47;4.50;;;18.50;99.90;;;;;;5098847;28;20212;-75
2021/05/18 13:37:46;;;;;;;5.20;4.60;;;18.50;99.90;;;;;;5098923;28;20287;-73
2021/05/18 13:40:15;;;;;;;4.80;4.40;;;18.50;99.90;;;;;;5098392;28;20232;-75
2021/05/18 13:42:41;;;;;;;5.17;4.67;;;18.60;99.90;;;;;;5102870;28;20568;-74
2021/05/18 13:45:09;;;;;;;5.67;4.83;;;18.60;99.90;;;;;;5108878;27;20208;-73
2021/05/18 13:47:36;;;;;;;6.30;4.80;;;18.60;99.90;;;;;;5104008;28;20208;-70
2021/05/18 13:50:04;;;;;;;6.27;5.07;;;18.50;99.90;;;;;;5106772;28;20239;-70
2021/05/18 13:52:30;;;;;;;5.33;4.93;;;18.40;99.90;;;;;;5101344;28;20287;-70
2021/05/18 13:54:57;;;;;;;5.40;4.90;;;18.30;99.90;;;;;;5098628;28;20700;-70
2021/05/18 13:57:23;;;;;;;5.50;4.97;;;18.30;99.90;;;;;;5091721;28;20602;-70
2021/05/18 13:59:50;;;;;;;6.27;5.67;;;18.20;99.90;;;;;;5093284;28;20557;-69
2021/05/18 14:02:16;;;;;;;10.47;4.67;;;18.10;99.90;;;;;;5093211;28;20208;-69
2021/05/18 14:04:43;;;;;;;9.07;5.10;;;18.10;99.90;;;;;;5100254;28;20245;-70
2021/05/18 14:07:41;;;;;;;6.10;4.93;;;17.90;99.90;;;;;;5098869;28;20594;-69
2021/05/18 14:10:08;;;;;;;5.67;5.17;;;17.90;99.90;;;;;;5098446;28;20265;-69
2021/05/18 14:12:34;;;;;;;5.43;4.43;;;17.70;99.90;;;;;;5098715;28;20706;-70
2021/05/18 14:15:01;;;;;;;5.57;4.63;;;17.70;99.90;;;;;;5094891;28;20291;-70
2021/05/18 14:17:27;;;;;;;4.33;4.03;;;17.60;99.90;;;;;;5097836;28;20698;-69
2021/05/18 14:19:54;;;;;;;4.90;4.40;;;17.50;99.90;;;;;;5105515;28;21075;-70
2021/05/18 14:22:21;;;;;;;4.93;4.53;;;17.40;99.90;;;;;;5091830;28;20315;-69
2021/05/18 14:24:54;;;;;;;5.93;4.07;;;17.20;99.90;;;;;;5092203;28;20327;-69
2021/05/18 14:27:23;;;;;;;9.60;7.40;;;17.20;99.90;;;;;;5102002;28;20285;-70
2021/05/18 14:29:50;;;;;;;5.00;4.17;;;17.10;99.90;;;;;;5098070;28;20223;-71
2021/05/18 14:32:16;;;;;;;4.60;4.20;;;17.10;99.90;;;;;;5090186;28;20601;-70
2021/05/18 14:34:43;;;;;;;5.37;4.23;;;17.10;99.90;;;;;;5090313;28;20291;-71
2021/05/18 14:37:09;;;;;;;4.57;4.17;;;17.00;99.90;;;;;;5095638;28;20279;-72
2021/05/18 14:39:50;;;;;;;5.57;4.07;;;16.90;99.90;;;;;;5096001;28;20295;-71
2021/05/18 14:45:01;;;;;;;4.33;3.87;;;16.80;99.90;;;;;;5089585;28;20300;-69
2021/05/18 14:47:31;;;;;;;5.53;4.17;;;16.80;99.90;;;;;;5092454;28;20267;-71
2021/05/18 14:55:42;;;;;;;4.87;4.33;;;16.90;99.90;;;;;;5040252;28;20287;-70
2021/05/18 14:58:08;;;;;;;4.30;3.90;;;16.90;99.90;;;;;;5026491;28;20280;-71
2021/05/18 15:00:38;;;;;;;4.20;3.80;;;16.90;99.90;;;;;;5063572;28;20215;-70
2021/05/18 15:03:04;;;;;;;3.80;3.40;;;16.90;99.90;;;;;;5090179;28;20208;-71
2021/05/18 15:05:31;;;;;;;4.10;3.30;;;16.90;99.90;;;;;;5103415;28;20259;-72
2021/05/18 15:07:57;;;;;;;3.97;3.53;;;17.00;99.90;;;;;;5107089;28;20212;-71
2021/05/18 15:10:24;;;;;;;3.63;3.30;;;17.00;99.90;;;;;;5102501;28;20268;-71
2021/05/18 15:12:51;;;;;;;5.50;3.43;;;17.00;99.90;;;;;;5103937;28;20280;-72
2021/05/18 15:15:18;;;;;;;3.43;3.13;;;16.90;99.90;;;;;;5106657;28;20336;-71
2021/05/18 15:17:44;;;;;;;4.03;3.10;;;16.90;99.90;;;;;;5092936;28;20764;-72
2021/05/18 15:20:12;;;;;;;3.50;3.20;;;16.80;99.90;;;;;;5078436;28;20414;-71
2021/05/18 15:22:39;;;;;;;3.33;3.07;;;16.80;99.90;;;;;;5091905;28;20207;-72
2021/05/18 15:25:07;;;;;;;4.57;3.60;;;16.70;99.90;;;;;;5093631;28;20616;-72
2021/05/18 15:27:34;;;;;;;3.67;3.00;;;16.70;99.90;;;;;;5093067;28;20220;-72
2021/05/18 15:30:01;;;;;;;4.20;3.60;;;16.70;99.90;;;;;;5093219;28;20236;-72
2021/05/18 15:32:28;;;;;;;4.60;3.73;;;16.70;99.90;;;;;;5084907;28;20215;-71
2021/05/18 15:34:54;;;;;;;4.33;3.20;;;16.60;99.90;;;;;;5086776;28;20208;-71
2021/05/18 15:37:20;;;;;;;4.20;2.93;;;16.50;99.90;;;;;;5092800;28;20279;-71
2021/05/18 15:39:47;;;;;;;3.43;3.13;;;16.50;99.90;;;;;;5103779;28;20207;-70
2021/05/18 15:42:13;;;;;;;4.33;3.30;;;16.40;99.90;;;;;;5092616;28;20611;-71
2021/05/18 15:44:39;;;;;;;3.40;3.10;;;16.30;99.90;;;;;;5091290;28;20663;-71
2021/05/18 15:47:07;;;;;;;3.10;2.90;;;16.30;99.90;;;;;;5092422;28;20653;-70
2021/05/18 15:49:33;;;;;;;3.40;3.10;;;16.20;99.90;;;;;;5092664;28;20705;-71
2021/05/18 15:52:00;;;;;;;3.17;2.87;;;16.20;99.90;;;;;;5081629;28;20642;-70
2021/05/18 15:54:27;;;;;;;4.77;2.80;;;16.10;99.90;;;;;;5093012;28;20204;-71
2021/05/18 15:56:54;;;;;;;4.43;2.90;;;16.00;99.90;;;;;;5092284;28;20204;-70
2021/05/18 15:59:20;;;;;;;3.27;2.70;;;16.00;99.90;;;;;;5091419;28;20236;-69
2021/05/18 16:01:47;;;;;;;3.80;2.77;;;15.90;99.90;;;;;;5092095;28;20642;-70
2021/05/18 16:04:14;;;;;;;3.80;3.10;;;15.90;99.90;;;;;;5094170;28;20228;-71
2021/05/18 16:06:42;;;;;;;3.60;2.50;;;15.90;99.90;;;;;;5096009;28;20262;-71
2021/05/18 16:09:09;;;;;;;3.77;2.73;;;15.90;99.90;;;;;;5094934;28;20213;-71
2021/05/18 16:11:35;;;;;;;5.07;2.93;;;15.80;99.90;;;;;;5096620;28;20228;-71
2021/05/18 16:14:02;;;;;;;4.33;2.97;;;15.70;99.90;;;;;;5097091;28;20703;-70
2021/05/18 16:16:29;;;;;;;3.50;2.80;;;15.70;99.90;;;;;;5086911;28;20201;-69
2021/05/18 16:18:56;;;;;;;4.13;3.00;;;15.70;99.90;;;;;;5096218;28;20218;-71
2021/05/18 16:21:25;;;;;;;3.20;2.90;;;15.60;99.90;;;;;;5095344;28;20731;-71
2021/05/18 16:23:53;;;;;;;5.27;3.30;;;15.60;99.90;;;;;;5089679;28;20291;-70
2021/05/18 16:26:22;;;;;;;3.57;2.93;;;15.60;99.90;;;;;;5095588;28;20216;-71
2021/05/18 16:28:50;;;;;;;3.37;3.07;;;15.60;99.90;;;;;;5089846;28;20232;-70
2021/05/18 16:31:17;;;;;;;3.80;3.30;;;15.60;99.90;;;;;;5095970;28;20684;-68
2021/05/18 16:33:44;;;;;;;3.50;3.20;;;15.60;99.90;;;;;;5092330;28;20245;-69
2021/05/18 16:36:12;;;;;;;3.60;3.00;;;15.50;99.90;;;;;;5100321;28;20201;-70
2021/05/18 16:38:40;;;;;;;3.43;2.87;;;15.50;99.90;;;;;;5094675;28;20300;-71
2021/05/18 16:41:07;;;;;;;4.97;3.47;;;15.50;99.90;;;;;;5095712;28;20658;-70
2021/05/18 16:43:34;;;;;;;3.93;3.30;;;15.50;99.90;;;;;;5103670;28;20246;-71
2021/05/18 16:46:01;;;;;;;4.60;3.80;;;15.40;99.90;;;;;;5105254;28;20768;-67
2021/05/18 16:48:28;;;;;;;6.27;4.00;;;15.40;99.90;;;;;;5105965;28;20240;-71
2021/05/18 16:50:54;;;;;;;4.40;4.00;;;15.30;99.90;;;;;;5103523;28;20267;-69
2021/05/18 16:53:21;;;;;;;3.83;3.43;;;15.30;99.90;;;;;;5102600;28;20207;-70
2021/05/18 16:55:48;;;;;;;4.10;3.40;;;15.20;99.90;;;;;;5103168;28;20284;-68
2021/05/18 16:58:16;;;;;;;4.40;3.80;;;15.20;99.90;;;;;;5105247;28;20286;-73
2021/05/18 17:00:42;;;;;;;5.60;3.77;;;15.20;99.90;;;;;;5090769;28;20304;-72
2021/05/18 17:03:09;;;;;;;4.40;3.77;;;15.20;99.90;;;;;;5106419;28;20207;-71
2021/05/18 17:05:35;;;;;;;4.30;3.90;;;15.20;99.90;;;;;;5108916;27;20260;-72
2021/05/18 17:08:03;;;;;;;3.93;3.63;;;15.10;99.90;;;;;;5099363;28;20291;-71
2021/05/18 17:10:31;;;;;;;4.77;3.63;;;15.10;99.90;;;;;;5109892;28;20203;-68
2021/05/18 17:12:58;;;;;;;4.50;4.00;;;15.10;99.90;;;;;;5104693;28;20303;-68
2021/05/18 17:15:25;;;;;;;4.47;3.70;;;15.00;99.90;;;;;;5106456;28;20209;-70
2021/05/18 17:17:52;;;;;;;5.07;4.23;;;15.00;99.90;;;;;;5088607;28;20695;-73
2021/05/18 17:20:20;;;;;;;5.23;3.80;;;15.00;99.90;;;;;;5094093;28;20254;-70
2021/05/18 17:22:46;;;;;;;5.67;3.60;;;15.00;99.90;;;;;;5087905;28;20283;-69
2021/05/18 17:25:15;;;;;;;3.87;3.57;;;15.00;99.90;;;;;;5090259;28;20628;-70